sensor_id;sensor_type;location;lat;lon;timestamp;P1;durP1;ratioP1;P2;durP2;ratioP2
44126;SDS011;29786;50.798;7.302;2022-08-01T00:00:51;3.2;;;1.6;;
44126;SDS011;29786;50.798;7.302;2022-08-01T00:01:51;2.7;;;1.6;;
44126;SDS011;29786;50.798;7.302;2022-08-01T00:02:51;5.1;;;1.8;;
44126;SDS011;29786;50.798;7.302;2022-08-01T00:03:51;2.1;;;1.5;;
44126;SDS011;29786;50.798;7.302;2022-08-01T00:04:53;3.4;;;1.3;;
44126;SDS011;29786;50.798;7.302;2022-08-01T00:05:51;3.3;;;1.4;;
44126;SDS011;29786;50.798;7.302;2022-08-01T00:06:51;3.7;;;1.3;;
44126;SDS011;29786;50.798;7.302;2022-08-01T00:07:51;3.4;;;1.6;;
44126;SDS011;29786;50.798;7.302;2022-08-01T00:08:51;3.2;;;1.5;;
44126;SDS011;29786;50.798;7.302;2022-08-01T00:09:51;2.7;;;1.4;;
44126;SDS011;29786;50.798;7.302;2022-08-01T00:10:51;2.7;;;1.4;;
44126;SDS011;29786;50.798;7.302;2022-08-01T00:11:51;2.1;;;1.4;;
44126;SDS011;29786;50.798;7.302;2022-08-01T00:12:51;2.8;;;1.6;;
44126;SDS011;29786;50.798;7.302;2022-08-01T00:13:52;2.6;;;1.4;;
44126;SDS011;29786;50.798;7.302;2022-08-01T00:14:51;4.3;;;1.5;;
44126;SDS011;29786;50.798;7.302;2022-08-01T00:15:51;2.5;;;1.6;;
44126;SDS011;29786;50.798;7.302;2022-08-01T00:16:51;3.4;;;1.3;;
44126;SDS011;29786;50.798;7.302;2022-08-01T00:17:51;2.5;;;1.3;;
44126;SDS011;29786;50.798;7.302;2022-08-01T00:18:51;2.5;;;1.4;;
44126;SDS011;29786;50.798;7.302;2022-08-01T00:19:51;2.5;;;1.4;;
44126;SDS011;29786;50.798;7.302;2022-08-01T00:20:51;3.3;;;1.7;;
44126;SDS011;29786;50.798;7.302;2022-08-01T00:21:51;2.3;;;1.3;;
44126;SDS011;29786;50.798;7.302;2022-08-01T00:22:51;2.9;;;1.6;;
44126;SDS011;29786;50.798;7.302;2022-08-01T00:23:51;2.2;;;1.4;;
44126;SDS011;29786;50.798;7.302;2022-08-01T00:24:51;2.9;;;1.7;;
44126;SDS011;29786;50.798;7.302;2022-08-01T00:25:51;3.1;;;1.5;;
44126;SDS011;29786;50.798;7.302;2022-08-01T00:26:51;3.6;;;1.6;;
44126;SDS011;29786;50.798;7.302;2022-08-01T00:27:51;3;;;1.5;;
44126;SDS011;29786;50.798;7.302;2022-08-01T00:28:51;3.5;;;1.6;;
44126;SDS011;29786;50.798;7.302;2022-08-01T00:29:51;2.9;;;1.7;;
44126;SDS011;29786;50.798;7.302;2022-08-01T00:30:51;3.4;;;1.8;;
44126;SDS011;29786;50.798;7.302;2022-08-01T00:31:51;3.9;;;1.7;;
44126;SDS011;29786;50.798;7.302;2022-08-01T00:32:51;2.5;;;1.5;;
44126;SDS011;29786;50.798;7.302;2022-08-01T00:33:51;2.4;;;1.5;;
44126;SDS011;29786;50.798;7.302;2022-08-01T00:34:51;2.5;;;1.5;;
44126;SDS011;29786;50.798;7.302;2022-08-01T00:35:51;2;;;1.4;;
44126;SDS011;29786;50.798;7.302;2022-08-01T00:36:51;3.2;;;1.4;;
44126;SDS011;29786;50.798;7.302;2022-08-01T00:37:51;5.4;;;1.7;;
44126;SDS011;29786;50.798;7.302;2022-08-01T00:38:51;2.5;;;1.7;;
44126;SDS011;29786;50.798;7.302;2022-08-01T00:39:51;2.9;;;1.6;;
44126;SDS011;29786;50.798;7.302;2022-08-01T00:40:51;2.5;;;1.5;;
44126;SDS011;29786;50.798;7.302;2022-08-01T00:41:51;1.8;;;1.6;;
44126;SDS011;29786;50.798;7.302;2022-08-01T00:42:51;2.7;;;1.6;;
44126;SDS011;29786;50.798;7.302;2022-08-01T00:43:51;3.7;;;1.4;;
44126;SDS011;29786;50.798;7.302;2022-08-01T00:44:51;3.5;;;1.5;;
44126;SDS011;29786;50.798;7.302;2022-08-01T00:45:51;3.9;;;1.6;;
44126;SDS011;29786;50.798;7.302;2022-08-01T00:46:51;2.7;;;1.8;;
44126;SDS011;29786;50.798;7.302;2022-08-01T00:47:51;2.5;;;1.4;;
44126;SDS011;29786;50.798;7.302;2022-08-01T00:48:51;2.5;;;1.7;;
44126;SDS011;29786;50.798;7.302;2022-08-01T00:49:51;3.7;;;1.8;;
44126;SDS011;29786;50.798;7.302;2022-08-01T00:50:51;2.6;;;1.7;;
44126;SDS011;29786;50.798;7.302;2022-08-01T00:51:51;2.6;;;1.6;;
44126;SDS011;29786;50.798;7.302;2022-08-01T00:52:51;5.3;;;1.9;;
44126;SDS011;29786;50.798;7.302;2022-08-01T00:53:51;4.1;;;1.7;;
44126;SDS011;29786;50.798;7.302;2022-08-01T00:54:51;4.6;;;1.6;;
44126;SDS011;29786;50.798;7.302;2022-08-01T00:55:51;3;;;1.7;;
44126;SDS011;29786;50.798;7.302;2022-08-01T00:56:52;3;;;1.6;;
44126;SDS011;29786;50.798;7.302;2022-08-01T00:57:51;2.9;;;1.7;;
44126;SDS011;29786;50.798;7.302;2022-08-01T00:58:51;3.6;;;1.6;;
44126;SDS011;29786;50.798;7.302;2022-08-01T00:59:52;4.9;;;1.8;;
44126;SDS011;29786;50.798;7.302;2022-08-01T01:00:51;3.5;;;1.8;;
44126;SDS011;29786;50.798;7.302;2022-08-01T01:01:51;3.4;;;1.5;;
44126;SDS011;29786;50.798;7.302;2022-08-01T01:02:51;2.6;;;1.6;;
44126;SDS011;29786;50.798;7.302;2022-08-01T01:03:52;4.9;;;1.9;;
44126;SDS011;29786;50.798;7.302;2022-08-01T01:04:51;3.7;;;1.7;;
44126;SDS011;29786;50.798;7.302;2022-08-01T01:06:01;3;;;1.7;;
44126;SDS011;29786;50.798;7.302;2022-08-01T01:07:09;4.1;;;1.8;;
44126;SDS011;29786;50.798;7.302;2022-08-01T01:07:59;2.8;;;1.7;;
44126;SDS011;29786;50.798;7.302;2022-08-01T01:08:58;3.5;;;1.7;;
44126;SDS011;29786;50.798;7.302;2022-08-01T01:09:53;2.8;;;1.8;;
44126;SDS011;29786;50.798;7.302;2022-08-01T01:10:52;2.5;;;1.5;;
44126;SDS011;29786;50.798;7.302;2022-08-01T01:11:57;5.3;;;1.8;;
44126;SDS011;29786;50.798;7.302;2022-08-01T01:12:56;3.2;;;1.8;;
44126;SDS011;29786;50.798;7.302;2022-08-01T01:13:54;3.8;;;2;;
44126;SDS011;29786;50.798;7.302;2022-08-01T01:14:56;2.7;;;1.5;;
44126;SDS011;29786;50.798;7.302;2022-08-01T01:15:55;3.3;;;1.8;;
44126;SDS011;29786;50.798;7.302;2022-08-01T01:16:51;2.8;;;1.8;;
44126;SDS011;29786;50.798;7.302;2022-08-01T01:17:53;3.4;;;1.9;;
44126;SDS011;29786;50.798;7.302;2022-08-01T01:18:53;2.6;;;1.7;;
44126;SDS011;29786;50.798;7.302;2022-08-01T01:19:52;2.8;;;1.7;;
44126;SDS011;29786;50.798;7.302;2022-08-01T01:20:54;3.4;;;1.9;;
44126;SDS011;29786;50.798;7.302;2022-08-01T01:21:56;2.9;;;1.7;;
44126;SDS011;29786;50.798;7.302;2022-08-01T01:23:10;2.6;;;1.9;;
44126;SDS011;29786;50.798;7.302;2022-08-01T01:23:55;3.1;;;1.8;;
44126;SDS011;29786;50.798;7.302;2022-08-01T01:24:58;3.8;;;1.9;;
44126;SDS011;29786;50.798;7.302;2022-08-01T01:26:57;3.6;;;1.8;;
44126;SDS011;29786;50.798;7.302;2022-08-01T01:27:57;4.2;;;2.1;;
44126;SDS011;29786;50.798;7.302;2022-08-01T01:27:57;2.4;;;1.8;;
44126;SDS011;29786;50.798;7.302;2022-08-01T01:29:25;3.3;;;1.8;;
44126;SDS011;29786;50.798;7.302;2022-08-01T01:29:52;2.6;;;1.7;;
44126;SDS011;29786;50.798;7.302;2022-08-01T01:30:52;4;;;2.1;;
44126;SDS011;29786;50.798;7.302;2022-08-01T01:31:55;2.8;;;1.8;;
44126;SDS011;29786;50.798;7.302;2022-08-01T01:32:51;3.8;;;1.9;;
44126;SDS011;29786;50.798;7.302;2022-08-01T01:33:51;5.9;;;2;;
44126;SDS011;29786;50.798;7.302;2022-08-01T01:34:52;3.8;;;2;;
44126;SDS011;29786;50.798;7.302;2022-08-01T01:35:52;5.3;;;2.1;;
44126;SDS011;29786;50.798;7.302;2022-08-01T01:36:52;5.1;;;2.1;;
44126;SDS011;29786;50.798;7.302;2022-08-01T01:37:55;4.4;;;2;;
44126;SDS011;29786;50.798;7.302;2022-08-01T01:38:51;2.5;;;1.9;;
44126;SDS011;29786;50.798;7.302;2022-08-01T01:39:51;2.5;;;1.9;;
44126;SDS011;29786;50.798;7.302;2022-08-01T01:40:52;3.8;;;2.4;;
44126;SDS011;29786;50.798;7.302;2022-08-01T01:41:51;2.5;;;1.9;;
44126;SDS011;29786;50.798;7.302;2022-08-01T01:42:51;2.3;;;2.1;;
44126;SDS011;29786;50.798;7.302;2022-08-01T01:43:51;4.4;;;2.3;;
44126;SDS011;29786;50.798;7.302;2022-08-01T01:44:51;3.3;;;2;;
44126;SDS011;29786;50.798;7.302;2022-08-01T01:45:51;4.8;;;2.5;;
44126;SDS011;29786;50.798;7.302;2022-08-01T01:46:51;2.3;;;2.1;;
44126;SDS011;29786;50.798;7.302;2022-08-01T01:47:51;4.8;;;2.3;;
44126;SDS011;29786;50.798;7.302;2022-08-01T01:48:51;5.7;;;1.8;;
44126;SDS011;29786;50.798;7.302;2022-08-01T01:49:51;3.9;;;2.2;;
44126;SDS011;29786;50.798;7.302;2022-08-01T01:50:51;4.1;;;2.5;;
44126;SDS011;29786;50.798;7.302;2022-08-01T01:51:53;4;;;2.5;;
44126;SDS011;29786;50.798;7.302;2022-08-01T01:52:51;5.7;;;2.5;;
44126;SDS011;29786;50.798;7.302;2022-08-01T01:53:52;4.3;;;2.9;;
44126;SDS011;29786;50.798;7.302;2022-08-01T01:54:51;3.5;;;2.5;;
44126;SDS011;29786;50.798;7.302;2022-08-01T01:55:52;3.5;;;2.5;;
44126;SDS011;29786;50.798;7.302;2022-08-01T01:56:51;3.7;;;2.5;;
44126;SDS011;29786;50.798;7.302;2022-08-01T01:57:51;4.4;;;3;;
44126;SDS011;29786;50.798;7.302;2022-08-01T01:58:53;3.4;;;3.1;;
44126;SDS011;29786;50.798;7.302;2022-08-01T01:59:51;5;;;3.4;;
44126;SDS011;29786;50.798;7.302;2022-08-01T02:00:51;5.9;;;3.5;;
44126;SDS011;29786;50.798;7.302;2022-08-01T02:01:52;5.8;;;3.4;;
44126;SDS011;29786;50.798;7.302;2022-08-01T02:02:51;6.6;;;3.8;;
44126;SDS011;29786;50.798;7.302;2022-08-01T02:03:51;6.4;;;3.7;;
44126;SDS011;29786;50.798;7.302;2022-08-01T02:04:51;5.8;;;3.6;;
44126;SDS011;29786;50.798;7.302;2022-08-01T02:05:51;6.2;;;3.7;;
44126;SDS011;29786;50.798;7.302;2022-08-01T02:06:51;6.1;;;3.7;;
44126;SDS011;29786;50.798;7.302;2022-08-01T02:07:51;5;;;3.6;;
44126;SDS011;29786;50.798;7.302;2022-08-01T02:08:52;5.2;;;3.7;;
44126;SDS011;29786;50.798;7.302;2022-08-01T02:09:51;5.5;;;3.5;;
44126;SDS011;29786;50.798;7.302;2022-08-01T02:10:51;7.4;;;3.9;;
44126;SDS011;29786;50.798;7.302;2022-08-01T02:11:51;6.6;;;3.5;;
44126;SDS011;29786;50.798;7.302;2022-08-01T02:12:51;5.2;;;4;;
44126;SDS011;29786;50.798;7.302;2022-08-01T02:13:53;6.4;;;4.1;;
44126;SDS011;29786;50.798;7.302;2022-08-01T02:14:52;6.5;;;4.1;;
44126;SDS011;29786;50.798;7.302;2022-08-01T02:15:51;5.3;;;4.1;;
44126;SDS011;29786;50.798;7.302;2022-08-01T02:16:51;7.4;;;4.3;;
44126;SDS011;29786;50.798;7.302;2022-08-01T02:17:51;9.1;;;4.6;;
44126;SDS011;29786;50.798;7.302;2022-08-01T02:18:51;6.7;;;4.5;;
44126;SDS011;29786;50.798;7.302;2022-08-01T02:19:52;8.8;;;4.7;;
44126;SDS011;29786;50.798;7.302;2022-08-01T02:20:52;6.8;;;4.7;;
44126;SDS011;29786;50.798;7.302;2022-08-01T02:21:53;8.2;;;4.3;;
44126;SDS011;29786;50.798;7.302;2022-08-01T02:22:53;7.1;;;5.1;;
44126;SDS011;29786;50.798;7.302;2022-08-01T02:23:51;7.7;;;4.8;;
44126;SDS011;29786;50.798;7.302;2022-08-01T02:24:52;6.5;;;4.5;;
44126;SDS011;29786;50.798;7.302;2022-08-01T02:25:52;6;;;4.5;;
44126;SDS011;29786;50.798;7.302;2022-08-01T02:26:52;6.3;;;4.3;;
44126;SDS011;29786;50.798;7.302;2022-08-01T02:27:54;5.5;;;4.7;;
44126;SDS011;29786;50.798;7.302;2022-08-01T02:28:53;5.9;;;4.4;;
44126;SDS011;29786;50.798;7.302;2022-08-01T02:29:53;5.6;;;4.5;;
44126;SDS011;29786;50.798;7.302;2022-08-01T02:30:51;6.7;;;4.7;;
44126;SDS011;29786;50.798;7.302;2022-08-01T02:31:51;4.8;;;4.3;;
44126;SDS011;29786;50.798;7.302;2022-08-01T02:32:53;9.3;;;4.8;;
44126;SDS011;29786;50.798;7.302;2022-08-01T02:33:56;7;;;4.8;;
44126;SDS011;29786;50.798;7.302;2022-08-01T02:34:51;7.3;;;4.7;;
44126;SDS011;29786;50.798;7.302;2022-08-01T02:35:53;11.4;;;5;;
44126;SDS011;29786;50.798;7.302;2022-08-01T02:36:51;6;;;4.6;;
44126;SDS011;29786;50.798;7.302;2022-08-01T02:37:51;8.5;;;4.5;;
44126;SDS011;29786;50.798;7.302;2022-08-01T02:38:51;8.5;;;5;;
44126;SDS011;29786;50.798;7.302;2022-08-01T02:39:52;7.2;;;4.6;;
44126;SDS011;29786;50.798;7.302;2022-08-01T02:40:52;4.9;;;4.4;;
44126;SDS011;29786;50.798;7.302;2022-08-01T02:41:52;10.4;;;5;;
44126;SDS011;29786;50.798;7.302;2022-08-01T02:42:51;6.7;;;4.7;;
44126;SDS011;29786;50.798;7.302;2022-08-01T02:43:52;8.6;;;4.6;;
44126;SDS011;29786;50.798;7.302;2022-08-01T02:44:51;6.6;;;4.7;;
44126;SDS011;29786;50.798;7.302;2022-08-01T02:45:53;9.3;;;4.8;;
44126;SDS011;29786;50.798;7.302;2022-08-01T02:46:54;5.5;;;4.4;;
44126;SDS011;29786;50.798;7.302;2022-08-01T02:47:52;5.5;;;4.6;;
44126;SDS011;29786;50.798;7.302;2022-08-01T02:48:52;7.9;;;4.4;;
44126;SDS011;29786;50.798;7.302;2022-08-01T02:49:51;7.2;;;4.5;;
44126;SDS011;29786;50.798;7.302;2022-08-01T02:50:52;8;;;4.5;;
44126;SDS011;29786;50.798;7.302;2022-08-01T02:51:51;5.2;;;4.4;;
44126;SDS011;29786;50.798;7.302;2022-08-01T02:52:51;5.8;;;4.1;;
44126;SDS011;29786;50.798;7.302;2022-08-01T02:53:51;5.4;;;4.2;;
44126;SDS011;29786;50.798;7.302;2022-08-01T02:54:53;7.7;;;4.6;;
44126;SDS011;29786;50.798;7.302;2022-08-01T02:55:51;6;;;3.9;;
44126;SDS011;29786;50.798;7.302;2022-08-01T02:56:51;7.8;;;4.5;;
44126;SDS011;29786;50.798;7.302;2022-08-01T02:57:51;7.4;;;4.6;;
44126;SDS011;29786;50.798;7.302;2022-08-01T02:58:51;5.9;;;4.2;;
44126;SDS011;29786;50.798;7.302;2022-08-01T02:59:51;7.6;;;4.9;;
44126;SDS011;29786;50.798;7.302;2022-08-01T03:00:51;5.9;;;4.2;;
44126;SDS011;29786;50.798;7.302;2022-08-01T03:01:52;6.4;;;4.3;;
44126;SDS011;29786;50.798;7.302;2022-08-01T03:02:52;5.6;;;4.2;;
44126;SDS011;29786;50.798;7.302;2022-08-01T03:03:51;5.7;;;4.5;;
44126;SDS011;29786;50.798;7.302;2022-08-01T03:04:52;7.4;;;4.6;;
44126;SDS011;29786;50.798;7.302;2022-08-01T03:05:51;7.5;;;4.5;;
44126;SDS011;29786;50.798;7.302;2022-08-01T03:06:52;6.9;;;4.2;;
44126;SDS011;29786;50.798;7.302;2022-08-01T03:07:52;7.6;;;4.4;;
44126;SDS011;29786;50.798;7.302;2022-08-01T03:08:52;8.1;;;4;;
44126;SDS011;29786;50.798;7.302;2022-08-01T03:09:51;7.7;;;4.1;;
44126;SDS011;29786;50.798;7.302;2022-08-01T03:10:51;7.1;;;4.1;;
44126;SDS011;29786;50.798;7.302;2022-08-01T03:11:51;5;;;4.2;;
44126;SDS011;29786;50.798;7.302;2022-08-01T03:12:51;5.9;;;4.3;;
44126;SDS011;29786;50.798;7.302;2022-08-01T03:13:51;6.2;;;4.1;;
44126;SDS011;29786;50.798;7.302;2022-08-01T03:14:51;7.1;;;4.7;;
44126;SDS011;29786;50.798;7.302;2022-08-01T03:15:51;7.4;;;4.6;;
44126;SDS011;29786;50.798;7.302;2022-08-01T03:16:51;8.2;;;4.9;;
44126;SDS011;29786;50.798;7.302;2022-08-01T03:17:51;8.7;;;4.7;;
44126;SDS011;29786;50.798;7.302;2022-08-01T03:18:52;8.7;;;5.4;;
44126;SDS011;29786;50.798;7.302;2022-08-01T03:19:52;6.5;;;4.6;;
44126;SDS011;29786;50.798;7.302;2022-08-01T03:20:52;6.9;;;4.6;;
44126;SDS011;29786;50.798;7.302;2022-08-01T03:21:51;7.5;;;5.1;;
44126;SDS011;29786;50.798;7.302;2022-08-01T03:22:51;6.8;;;4.4;;
44126;SDS011;29786;50.798;7.302;2022-08-01T03:23:51;5.3;;;4.8;;
44126;SDS011;29786;50.798;7.302;2022-08-01T03:24:52;8.4;;;4.6;;
44126;SDS011;29786;50.798;7.302;2022-08-01T03:25:51;6.6;;;4.7;;
44126;SDS011;29786;50.798;7.302;2022-08-01T03:26:51;9.6;;;4.6;;
44126;SDS011;29786;50.798;7.302;2022-08-01T03:27:54;9.6;;;5.1;;
44126;SDS011;29786;50.798;7.302;2022-08-01T03:28:51;7.9;;;4.5;;
44126;SDS011;29786;50.798;7.302;2022-08-01T03:29:52;6.9;;;4.6;;
44126;SDS011;29786;50.798;7.302;2022-08-01T03:30:51;9.3;;;4.8;;
44126;SDS011;29786;50.798;7.302;2022-08-01T03:31:51;8.5;;;5;;
44126;SDS011;29786;50.798;7.302;2022-08-01T03:32:51;5.7;;;4.1;;
44126;SDS011;29786;50.798;7.302;2022-08-01T03:33:51;6.2;;;4;;
44126;SDS011;29786;50.798;7.302;2022-08-01T03:34:51;7.3;;;4.9;;
44126;SDS011;29786;50.798;7.302;2022-08-01T03:35:52;6.2;;;4.8;;
44126;SDS011;29786;50.798;7.302;2022-08-01T03:36:53;8.2;;;4.8;;
44126;SDS011;29786;50.798;7.302;2022-08-01T03:37:52;9.6;;;4.9;;
44126;SDS011;29786;50.798;7.302;2022-08-01T03:38:51;7.8;;;5.3;;
44126;SDS011;29786;50.798;7.302;2022-08-01T03:40:09;6;;;5;;
44126;SDS011;29786;50.798;7.302;2022-08-01T03:40:53;9.1;;;5.1;;
44126;SDS011;29786;50.798;7.302;2022-08-01T03:41:54;11.5;;;5.2;;
44126;SDS011;29786;50.798;7.302;2022-08-01T03:42:54;10.8;;;4.9;;
44126;SDS011;29786;50.798;7.302;2022-08-01T03:43:52;7.7;;;4.9;;
44126;SDS011;29786;50.798;7.302;2022-08-01T03:44:54;6.6;;;5;;
44126;SDS011;29786;50.798;7.302;2022-08-01T03:45:51;6.4;;;4.9;;
44126;SDS011;29786;50.798;7.302;2022-08-01T03:46:53;9.6;;;5.1;;
44126;SDS011;29786;50.798;7.302;2022-08-01T03:47:52;10.2;;;6;;
44126;SDS011;29786;50.798;7.302;2022-08-01T03:48:51;8.2;;;5.8;;
44126;SDS011;29786;50.798;7.302;2022-08-01T03:49:51;7.8;;;5.5;;
44126;SDS011;29786;50.798;7.302;2022-08-01T03:50:51;9.4;;;5.9;;
44126;SDS011;29786;50.798;7.302;2022-08-01T03:51:51;11;;;6.3;;
44126;SDS011;29786;50.798;7.302;2022-08-01T03:52:51;10.5;;;5.8;;
44126;SDS011;29786;50.798;7.302;2022-08-01T03:53:51;10.7;;;6.4;;
44126;SDS011;29786;50.798;7.302;2022-08-01T03:54:52;6.4;;;5.5;;
44126;SDS011;29786;50.798;7.302;2022-08-01T03:55:51;8.1;;;6.2;;
44126;SDS011;29786;50.798;7.302;2022-08-01T03:56:51;9.7;;;6;;
44126;SDS011;29786;50.798;7.302;2022-08-01T03:57:51;10.7;;;6.4;;
44126;SDS011;29786;50.798;7.302;2022-08-01T03:58:51;8.3;;;5.9;;
44126;SDS011;29786;50.798;7.302;2022-08-01T03:59:51;12.1;;;6.4;;
44126;SDS011;29786;50.798;7.302;2022-08-01T04:00:51;8.4;;;6.4;;
44126;SDS011;29786;50.798;7.302;2022-08-01T04:01:51;11.2;;;8.2;;
44126;SDS011;29786;50.798;7.302;2022-08-01T04:02:51;9.5;;;7.1;;
44126;SDS011;29786;50.798;7.302;2022-08-01T04:03:51;11.7;;;7.3;;
44126;SDS011;29786;50.798;7.302;2022-08-01T04:04:51;10.9;;;8.1;;
44126;SDS011;29786;50.798;7.302;2022-08-01T04:05:51;10.1;;;7.5;;
44126;SDS011;29786;50.798;7.302;2022-08-01T04:06:51;15;;;8;;
44126;SDS011;29786;50.798;7.302;2022-08-01T04:07:51;11.3;;;7.7;;
44126;SDS011;29786;50.798;7.302;2022-08-01T04:08:51;11.5;;;7.4;;
44126;SDS011;29786;50.798;7.302;2022-08-01T04:09:52;13.6;;;7.4;;
44126;SDS011;29786;50.798;7.302;2022-08-01T04:10:52;15.4;;;8.3;;
44126;SDS011;29786;50.798;7.302;2022-08-01T04:11:52;11.7;;;7.9;;
44126;SDS011;29786;50.798;7.302;2022-08-01T04:12:52;11.1;;;7.9;;
44126;SDS011;29786;50.798;7.302;2022-08-01T04:13:52;13.1;;;7.9;;
44126;SDS011;29786;50.798;7.302;2022-08-01T04:14:56;13.2;;;7.9;;
44126;SDS011;29786;50.798;7.302;2022-08-01T04:15:52;12.8;;;7.5;;
44126;SDS011;29786;50.798;7.302;2022-08-01T04:16:51;11.2;;;7.5;;
44126;SDS011;29786;50.798;7.302;2022-08-01T04:17:51;12.3;;;7.2;;
44126;SDS011;29786;50.798;7.302;2022-08-01T04:18:51;11;;;7.5;;
44126;SDS011;29786;50.798;7.302;2022-08-01T04:19:51;12.3;;;7.9;;
44126;SDS011;29786;50.798;7.302;2022-08-01T04:20:51;11.1;;;8;;
44126;SDS011;29786;50.798;7.302;2022-08-01T04:21:51;10.8;;;7.8;;
44126;SDS011;29786;50.798;7.302;2022-08-01T04:22:51;9.9;;;7.2;;
44126;SDS011;29786;50.798;7.302;2022-08-01T04:23:51;10.3;;;7.6;;
44126;SDS011;29786;50.798;7.302;2022-08-01T04:24:52;9.5;;;7.1;;
44126;SDS011;29786;50.798;7.302;2022-08-01T04:25:51;12;;;8.3;;
44126;SDS011;29786;50.798;7.302;2022-08-01T04:26:51;11.9;;;7.4;;
44126;SDS011;29786;50.798;7.302;2022-08-01T04:27:51;10.7;;;7.7;;
44126;SDS011;29786;50.798;7.302;2022-08-01T04:28:51;12.1;;;8.1;;
44126;SDS011;29786;50.798;7.302;2022-08-01T04:29:51;11.8;;;7.4;;
44126;SDS011;29786;50.798;7.302;2022-08-01T04:30:52;9;;;6.9;;
44126;SDS011;29786;50.798;7.302;2022-08-01T04:31:52;12;;;7.9;;
44126;SDS011;29786;50.798;7.302;2022-08-01T04:32:52;13.2;;;7.2;;
44126;SDS011;29786;50.798;7.302;2022-08-01T04:33:51;9;;;6.4;;
44126;SDS011;29786;50.798;7.302;2022-08-01T04:34:51;10.7;;;6.7;;
44126;SDS011;29786;50.798;7.302;2022-08-01T04:35:51;12.2;;;7.3;;
44126;SDS011;29786;50.798;7.302;2022-08-01T04:36:52;13.1;;;7.4;;
44126;SDS011;29786;50.798;7.302;2022-08-01T04:37:51;9.9;;;6.9;;
44126;SDS011;29786;50.798;7.302;2022-08-01T04:38:52;10.1;;;7.3;;
44126;SDS011;29786;50.798;7.302;2022-08-01T04:39:52;13.6;;;7.8;;
44126;SDS011;29786;50.798;7.302;2022-08-01T04:40:51;10.6;;;7.6;;
44126;SDS011;29786;50.798;7.302;2022-08-01T04:41:51;12.9;;;6.7;;
44126;SDS011;29786;50.798;7.302;2022-08-01T04:42:51;9.6;;;7.1;;
44126;SDS011;29786;50.798;7.302;2022-08-01T04:43:51;10.8;;;7.5;;
44126;SDS011;29786;50.798;7.302;2022-08-01T04:44:51;8.8;;;6.8;;
44126;SDS011;29786;50.798;7.302;2022-08-01T04:45:51;11.7;;;6.8;;
44126;SDS011;29786;50.798;7.302;2022-08-01T04:46:51;11.6;;;7;;
44126;SDS011;29786;50.798;7.302;2022-08-01T04:47:51;11.3;;;6.9;;
44126;SDS011;29786;50.798;7.302;2022-08-01T04:48:51;8.4;;;6.7;;
44126;SDS011;29786;50.798;7.302;2022-08-01T04:49:51;12.2;;;7.2;;
44126;SDS011;29786;50.798;7.302;2022-08-01T04:50:51;11.8;;;7.1;;
44126;SDS011;29786;50.798;7.302;2022-08-01T04:51:53;11;;;7.1;;
44126;SDS011;29786;50.798;7.302;2022-08-01T04:52:51;9.6;;;7;;
44126;SDS011;29786;50.798;7.302;2022-08-01T04:53:51;10.1;;;7.1;;
44126;SDS011;29786;50.798;7.302;2022-08-01T04:54:51;11.7;;;7.2;;
44126;SDS011;29786;50.798;7.302;2022-08-01T04:55:51;12.7;;;6.9;;
44126;SDS011;29786;50.798;7.302;2022-08-01T04:56:52;9.6;;;6.3;;
44126;SDS011;29786;50.798;7.302;2022-08-01T04:57:51;9.4;;;6.9;;
44126;SDS011;29786;50.798;7.302;2022-08-01T04:58:51;10;;;6.3;;
44126;SDS011;29786;50.798;7.302;2022-08-01T04:59:52;10;;;6.7;;
44126;SDS011;29786;50.798;7.302;2022-08-01T05:00:51;7.8;;;6.4;;
44126;SDS011;29786;50.798;7.302;2022-08-01T05:01:51;8.7;;;6.2;;
44126;SDS011;29786;50.798;7.302;2022-08-01T05:02:51;12.8;;;6.7;;
44126;SDS011;29786;50.798;7.302;2022-08-01T05:03:51;11.2;;;6.6;;
44126;SDS011;29786;50.798;7.302;2022-08-01T05:04:51;9.4;;;6.9;;
44126;SDS011;29786;50.798;7.302;2022-08-01T05:05:51;10;;;6.6;;
44126;SDS011;29786;50.798;7.302;2022-08-01T05:06:51;11.6;;;7.2;;
44126;SDS011;29786;50.798;7.302;2022-08-01T05:07:51;10.1;;;6.1;;
44126;SDS011;29786;50.798;7.302;2022-08-01T05:08:51;9.4;;;6.4;;
44126;SDS011;29786;50.798;7.302;2022-08-01T05:09:51;10.9;;;6.5;;
44126;SDS011;29786;50.798;7.302;2022-08-01T05:10:51;10.6;;;6;;
44126;SDS011;29786;50.798;7.302;2022-08-01T05:11:51;8.7;;;6.3;;
44126;SDS011;29786;50.798;7.302;2022-08-01T05:12:51;9.6;;;6.3;;
44126;SDS011;29786;50.798;7.302;2022-08-01T05:13:51;10.9;;;6.7;;
44126;SDS011;29786;50.798;7.302;2022-08-01T05:14:51;10.2;;;6.8;;
44126;SDS011;29786;50.798;7.302;2022-08-01T05:15:51;13.5;;;6.4;;
44126;SDS011;29786;50.798;7.302;2022-08-01T05:16:51;10.2;;;6.8;;
44126;SDS011;29786;50.798;7.302;2022-08-01T05:17:51;10.6;;;7.5;;
44126;SDS011;29786;50.798;7.302;2022-08-01T05:18:51;10;;;7;;
44126;SDS011;29786;50.798;7.302;2022-08-01T05:19:51;10.8;;;7.2;;
44126;SDS011;29786;50.798;7.302;2022-08-01T05:20:51;10.2;;;7.2;;
44126;SDS011;29786;50.798;7.302;2022-08-01T05:21:52;12.4;;;7.3;;
44126;SDS011;29786;50.798;7.302;2022-08-01T05:22:51;11.5;;;7;;
44126;SDS011;29786;50.798;7.302;2022-08-01T05:23:51;13.6;;;8.8;;
44126;SDS011;29786;50.798;7.302;2022-08-01T05:24:51;12.5;;;8.5;;
44126;SDS011;29786;50.798;7.302;2022-08-01T05:25:51;12.2;;;7.6;;
44126;SDS011;29786;50.798;7.302;2022-08-01T05:26:51;12;;;7.7;;
44126;SDS011;29786;50.798;7.302;2022-08-01T05:27:51;11.7;;;7.7;;
44126;SDS011;29786;50.798;7.302;2022-08-01T05:28:51;12.5;;;8.9;;
44126;SDS011;29786;50.798;7.302;2022-08-01T05:29:51;12.8;;;7.9;;
44126;SDS011;29786;50.798;7.302;2022-08-01T05:30:51;10.8;;;7.6;;
44126;SDS011;29786;50.798;7.302;2022-08-01T05:31:52;12.2;;;8.1;;
44126;SDS011;29786;50.798;7.302;2022-08-01T05:32:51;12.1;;;7.5;;
44126;SDS011;29786;50.798;7.302;2022-08-01T05:33:51;11.1;;;7.7;;
44126;SDS011;29786;50.798;7.302;2022-08-01T05:34:51;11.3;;;7.5;;
44126;SDS011;29786;50.798;7.302;2022-08-01T05:35:51;12.4;;;7.1;;
44126;SDS011;29786;50.798;7.302;2022-08-01T05:36:51;10.8;;;7.5;;
44126;SDS011;29786;50.798;7.302;2022-08-01T05:37:51;9.7;;;7.4;;
44126;SDS011;29786;50.798;7.302;2022-08-01T05:38:51;10;;;7;;
44126;SDS011;29786;50.798;7.302;2022-08-01T05:39:51;11.4;;;7.4;;
44126;SDS011;29786;50.798;7.302;2022-08-01T05:40:51;11.7;;;8;;
44126;SDS011;29786;50.798;7.302;2022-08-01T05:41:51;14.1;;;8.7;;
44126;SDS011;29786;50.798;7.302;2022-08-01T05:42:51;14;;;9.1;;
44126;SDS011;29786;50.798;7.302;2022-08-01T05:43:51;12.4;;;9;;
44126;SDS011;29786;50.798;7.302;2022-08-01T05:44:51;13;;;9.1;;
44126;SDS011;29786;50.798;7.302;2022-08-01T05:45:51;12.7;;;8.7;;
44126;SDS011;29786;50.798;7.302;2022-08-01T05:46:51;13.1;;;8.8;;
44126;SDS011;29786;50.798;7.302;2022-08-01T05:47:51;14.4;;;8.6;;
44126;SDS011;29786;50.798;7.302;2022-08-01T05:48:51;13.6;;;8.8;;
44126;SDS011;29786;50.798;7.302;2022-08-01T05:49:51;11.7;;;9;;
44126;SDS011;29786;50.798;7.302;2022-08-01T05:50:51;14.3;;;10.7;;
44126;SDS011;29786;50.798;7.302;2022-08-01T05:51:51;16;;;10.3;;
44126;SDS011;29786;50.798;7.302;2022-08-01T05:52:51;14.6;;;10.5;;
44126;SDS011;29786;50.798;7.302;2022-08-01T05:53:52;15.3;;;11.4;;
44126;SDS011;29786;50.798;7.302;2022-08-01T05:54:51;15.7;;;10.7;;
44126;SDS011;29786;50.798;7.302;2022-08-01T05:55:51;17.7;;;11.9;;
44126;SDS011;29786;50.798;7.302;2022-08-01T05:56:51;16.6;;;10.3;;
44126;SDS011;29786;50.798;7.302;2022-08-01T05:57:51;15.4;;;10.8;;
44126;SDS011;29786;50.798;7.302;2022-08-01T05:58:51;15.6;;;11.2;;
44126;SDS011;29786;50.798;7.302;2022-08-01T05:59:51;14.7;;;10.5;;
44126;SDS011;29786;50.798;7.302;2022-08-01T06:00:51;14.1;;;11.5;;
44126;SDS011;29786;50.798;7.302;2022-08-01T06:01:51;13.3;;;10.7;;
44126;SDS011;29786;50.798;7.302;2022-08-01T06:02:51;15.3;;;11;;
44126;SDS011;29786;50.798;7.302;2022-08-01T06:03:51;14.7;;;10.9;;
44126;SDS011;29786;50.798;7.302;2022-08-01T06:04:51;18.1;;;11.2;;
44126;SDS011;29786;50.798;7.302;2022-08-01T06:05:51;12.8;;;10.5;;
44126;SDS011;29786;50.798;7.302;2022-08-01T06:06:51;16;;;10.8;;
44126;SDS011;29786;50.798;7.302;2022-08-01T06:07:52;15.1;;;10.3;;
44126;SDS011;29786;50.798;7.302;2022-08-01T06:08:51;12.9;;;10.5;;
44126;SDS011;29786;50.798;7.302;2022-08-01T06:09:51;13.1;;;9.5;;
44126;SDS011;29786;50.798;7.302;2022-08-01T06:10:51;13.3;;;10.6;;
44126;SDS011;29786;50.798;7.302;2022-08-01T06:11:51;13.6;;;10.4;;
44126;SDS011;29786;50.798;7.302;2022-08-01T06:12:51;13.4;;;10.1;;